sensor_id;sensor_type;location;lat;lon;timestamp;pressure;altitude;pressure_sealevel;temperature;humidity
15568;BME280;7885;42.596;23.044;2024-01-10T00:00:03;93832.41;;;-3.33;86.29
15568;BME280;7885;42.596;23.044;2024-01-10T00:02:30;93832.41;;;-3.33;86.31
15568;BME280;7885;42.596;23.044;2024-01-10T00:04:57;93833.78;;;-3.36;86.45
15568;BME280;7885;42.596;23.044;2024-01-10T00:07:24;93834.50;;;-3.30;86.39
15568;BME280;7885;42.596;23.044;2024-01-10T00:09:50;93848.81;;;-3.26;86.45
15568;BME280;7885;42.596;23.044;2024-01-10T00:12:17;93846.91;;;-3.21;86.14
15568;BME280;7885;42.596;23.044;2024-01-10T00:14:44;93825.94;;;-3.27;86.01
15568;BME280;7885;42.596;23.044;2024-01-10T00:17:12;93845.00;;;-3.20;86.38
15568;BME280;7885;42.596;23.044;2024-01-10T00:19:39;93846.91;;;-3.21;86.00
15568;BME280;7885;42.596;23.044;2024-01-10T00:22:05;93843.72;;;-3.23;86.05
15568;BME280;7885;42.596;23.044;2024-01-10T00:24:32;93849.03;;;-3.23;85.93
15568;BME280;7885;42.596;23.044;2024-01-10T00:26:59;93842.34;;;-3.20;86.15
15568;BME280;7885;42.596;23.044;2024-01-10T00:29:26;93846.09;;;-3.21;86.19
15568;BME280;7885;42.596;23.044;2024-01-10T00:31:53;93842.34;;;-3.20;86.41
15568;BME280;7885;42.596;23.044;2024-01-10T00:34:21;93843.94;;;-3.19;86.24
15568;BME280;7885;42.596;23.044;2024-01-10T00:36:47;93861.28;;;-3.22;86.15
15568;BME280;7885;42.596;23.044;2024-01-10T00:39:14;93860.47;;;-3.22;86.20
15568;BME280;7885;42.596;23.044;2024-01-10T00:41:41;93863.41;;;-3.24;86.31
15568;BME280;7885;42.596;23.044;2024-01-10T00:44:08;93860.47;;;-3.22;86.45
15568;BME280;7885;42.596;23.044;2024-01-10T00:46:35;93861.84;;;-3.25;86.68
15568;BME280;7885;42.596;23.044;2024-01-10T00:49:02;93864.78;;;-3.26;87.02
15568;BME280;7885;42.596;23.044;2024-01-10T00:51:30;93850.47;;;-3.30;87.30
15568;BME280;7885;42.596;23.044;2024-01-10T00:53:57;93861.09;;;-3.30;87.03
15568;BME280;7885;42.596;23.044;2024-01-10T00:56:23;93832.66;;;-3.53;86.89
15568;BME280;7885;42.596;23.044;2024-01-10T00:58:50;93865.94;;;-3.32;87.19
15568;BME280;7885;42.596;23.044;2024-01-10T01:01:21;93867.31;;;-3.35;87.14
15568;BME280;7885;42.596;23.044;2024-01-10T01:03:48;93855.47;;;-3.47;87.55
15568;BME280;7885;42.596;23.044;2024-01-10T01:06:14;93861.31;;;-3.45;87.50
15568;BME280;7885;42.596;23.044;2024-01-10T01:08:42;93870.50;;;-3.38;88.17
15568;BME280;7885;42.596;23.044;2024-01-10T01:11:09;93868.63;;;-3.37;87.52
15568;BME280;7885;42.596;23.044;2024-01-10T01:13:37;93866.63;;;-3.45;87.71
15568;BME280;7885;42.596;23.044;2024-01-10T01:16:04;93866.09;;;-3.47;87.26
15568;BME280;7885;42.596;23.044;2024-01-10T01:18:31;93861.88;;;-3.48;87.92
15568;BME280;7885;42.596;23.044;2024-01-10T01:20:58;93859.97;;;-3.48;87.44
15568;BME280;7885;42.596;23.044;2024-01-10T01:23:25;93866.09;;;-3.71;86.78
15568;BME280;7885;42.596;23.044;2024-01-10T01:25:53;93863.84;;;-3.83;86.86
15568;BME280;7885;42.596;23.044;2024-01-10T01:28:19;93857.09;;;-3.99;87.53
15568;BME280;7885;42.596;23.044;2024-01-10T01:30:46;93860.63;;;-4.03;87.61
15568;BME280;7885;42.596;23.044;2024-01-10T01:33:13;93861.44;;;-4.08;88.04
15568;BME280;7885;42.596;23.044;2024-01-10T01:35:40;93858.88;;;-4.18;87.86
15568;BME280;7885;42.596;23.044;2024-01-10T01:38:06;93857.63;;;-4.26;87.07
15568;BME280;7885;42.596;23.044;2024-01-10T01:40:33;93858.59;;;-4.45;88.53
15568;BME280;7885;42.596;23.044;2024-01-10T01:43:01;93827.81;;;-4.85;88.94
15568;BME280;7885;42.596;23.044;2024-01-10T01:45:28;93846.69;;;-4.87;90.94
15568;BME280;7885;42.596;23.044;2024-01-10T01:47:55;93845.59;;;-4.81;91.99
15568;BME280;7885;42.596;23.044;2024-01-10T01:50:21;93840.19;;;-4.71;93.06
15568;BME280;7885;42.596;23.044;2024-01-10T01:52:49;93834.06;;;-4.66;92.56
15568;BME280;7885;42.596;23.044;2024-01-10T01:55:16;93838.97;;;-4.49;92.92
15568;BME280;7885;42.596;23.044;2024-01-10T01:57:43;93841.78;;;-4.36;92.53
15568;BME280;7885;42.596;23.044;2024-01-10T02:00:12;93832.34;;;-4.23;91.82
15568;BME280;7885;42.596;23.044;2024-01-10T02:02:39;93829.34;;;-4.17;90.83
15568;BME280;7885;42.596;23.044;2024-01-10T02:05:06;93834.56;;;-4.07;89.96
15568;BME280;7885;42.596;23.044;2024-01-10T02:07:33;93836.97;;;-4.05;90.24
15568;BME280;7885;42.596;23.044;2024-01-10T02:10:00;93826.91;;;-4.08;89.42
15568;BME280;7885;42.596;23.044;2024-01-10T02:12:27;93821.63;;;-4.13;89.30
15568;BME280;7885;42.596;23.044;2024-01-10T02:14:53;93823.22;;;-4.12;88.80
15568;BME280;7885;42.596;23.044;2024-01-10T02:17:22;93842.53;;;-4.07;89.10
15568;BME280;7885;42.596;23.044;2024-01-10T02:19:48;93818.25;;;-4.24;89.25
15568;BME280;7885;42.596;23.044;2024-01-10T02:22:15;93842.38;;;-4.15;89.80
15568;BME280;7885;42.596;23.044;2024-01-10T02:24:42;93823.81;;;-4.20;88.43
15568;BME280;7885;42.596;23.044;2024-01-10T02:27:09;93827.22;;;-4.15;88.68
15568;BME280;7885;42.596;23.044;2024-01-10T02:29:36;93831.50;;;-4.19;88.65
15568;BME280;7885;42.596;23.044;2024-01-10T02:32:04;93833.03;;;-4.13;88.63
15568;BME280;7885;42.596;23.044;2024-01-10T02:34:30;93831.69;;;-4.10;88.57
15568;BME280;7885;42.596;23.044;2024-01-10T02:36:57;93818.97;;;-4.13;88.42
15568;BME280;7885;42.596;23.044;2024-01-10T02:39:24;93816.94;;;-4.21;88.41
15568;BME280;7885;42.596;23.044;2024-01-10T02:41:51;93826.38;;;-4.10;88.47
15568;BME280;7885;42.596;23.044;2024-01-10T02:44:19;93832.22;;;-4.08;87.65
15568;BME280;7885;42.596;23.044;2024-01-10T02:46:48;93833.56;;;-4.11;87.95
15568;BME280;7885;42.596;23.044;2024-01-10T02:49:15;93823.47;;;-4.14;88.07
15568;BME280;7885;42.596;23.044;2024-01-10T02:51:43;93819.03;;;-4.18;87.62
15568;BME280;7885;42.596;23.044;2024-01-10T02:54:10;93829.81;;;-4.10;87.38
15568;BME280;7885;42.596;23.044;2024-01-10T02:56:37;93810.03;;;-4.22;87.92
15568;BME280;7885;42.596;23.044;2024-01-10T02:59:04;93831.97;;;-4.12;87.52
15568;BME280;7885;42.596;23.044;2024-01-10T03:01:32;93835.69;;;-4.13;87.66
15568;BME280;7885;42.596;23.044;2024-01-10T03:03:59;93810.03;;;-4.22;87.23
15568;BME280;7885;42.596;23.044;2024-01-10T03:06:25;93810.13;;;-4.32;86.96
15568;BME280;7885;42.596;23.044;2024-01-10T03:08:54;93822.34;;;-4.31;87.21
15568;BME280;7885;42.596;23.044;2024-01-10T03:11:21;93821.25;;;-4.30;87.27
15568;BME280;7885;42.596;23.044;2024-01-10T03:13:49;93821.31;;;-4.35;87.38
15568;BME280;7885;42.596;23.044;2024-01-10T03:16:16;93838.28;;;-4.31;87.24
15568;BME280;7885;42.596;23.044;2024-01-10T03:18:45;93827.78;;;-4.46;87.16
15568;BME280;7885;42.596;23.044;2024-01-10T03:21:12;93829.09;;;-4.44;87.03
15568;BME280;7885;42.596;23.044;2024-01-10T03:23:39;93830.47;;;-4.51;86.50
15568;BME280;7885;42.596;23.044;2024-01-10T03:26:05;93827.44;;;-4.69;85.95
15568;BME280;7885;42.596;23.044;2024-01-10T03:28:33;93844.00;;;-4.82;87.06
15568;BME280;7885;42.596;23.044;2024-01-10T03:30:59;93836.66;;;-4.95;87.64
15568;BME280;7885;42.596;23.044;2024-01-10T03:33:26;93840.91;;;-4.94;89.01
15568;BME280;7885;42.596;23.044;2024-01-10T03:35:54;93856.59;;;-4.97;87.77
15568;BME280;7885;42.596;23.044;2024-01-10T03:38:21;93840.50;;;-5.11;87.67
15568;BME280;7885;42.596;23.044;2024-01-10T03:40:48;93830.44;;;-5.14;88.01
15568;BME280;7885;42.596;23.044;2024-01-10T03:43:14;93843.66;;;-5.09;87.80
15568;BME280;7885;42.596;23.044;2024-01-10T03:45:42;93840.81;;;-5.18;86.22
15568;BME280;7885;42.596;23.044;2024-01-10T03:48:09;93844.03;;;-5.26;86.64
15568;BME280;7885;42.596;23.044;2024-01-10T03:50:36;93845.31;;;-5.23;88.18
15568;BME280;7885;42.596;23.044;2024-01-10T03:53:04;93827.38;;;-5.36;88.15
15568;BME280;7885;42.596;23.044;2024-01-10T03:55:31;93843.78;;;-5.29;86.75
15568;BME280;7885;42.596;23.044;2024-01-10T03:57:59;93850.69;;;-5.33;86.47
15568;BME280;7885;42.596;23.044;2024-01-10T04:00:26;93833.72;;;-5.37;88.45
15568;BME280;7885;42.596;23.044;2024-01-10T04:02:53;93840.06;;;-5.28;89.30
15568;BME280;7885;42.596;23.044;2024-01-10T04:05:20;93844.78;;;-5.20;88.72
15568;BME280;7885;42.596;23.044;2024-01-10T04:07:46;93841.63;;;-5.22;88.47
15568;BME280;7885;42.596;23.044;2024-01-10T04:28:37;93852.78;;;-5.30;87.52
15568;BME280;7885;42.596;23.044;2024-01-10T04:31:05;93859.44;;;-5.33;87.26
15568;BME280;7885;42.596;23.044;2024-01-10T04:33:32;93864.78;;;-5.43;87.81
15568;BME280;7885;42.596;23.044;2024-01-10T04:35:58;93864.31;;;-5.55;87.64
15568;BME280;7885;42.596;23.044;2024-01-10T04:38:25;93847.41;;;-5.69;87.63
15568;BME280;7885;42.596;23.044;2024-01-10T04:40:52;93863.59;;;-5.71;87.14
15568;BME280;7885;42.596;23.044;2024-01-10T04:43:19;93880.78;;;-5.63;86.93
15568;BME280;7885;42.596;23.044;2024-01-10T04:45:47;93867.84;;;-5.75;87.26
15568;BME280;7885;42.596;23.044;2024-01-10T04:48:14;93877.34;;;-5.69;87.11
15568;BME280;7885;42.596;23.044;2024-01-10T04:50:41;93852.28;;;-5.91;86.32
15568;BME280;7885;42.596;23.044;2024-01-10T04:53:08;93878.47;;;-5.85;85.84
15568;BME280;7885;42.596;23.044;2024-01-10T04:55:35;93891.25;;;-5.92;85.77
15568;BME280;7885;42.596;23.044;2024-01-10T04:58:01;93884.88;;;-5.96;86.97
15568;BME280;7885;42.596;23.044;2024-01-10T05:00:27;93874.84;;;-6.04;87.54
15568;BME280;7885;42.596;23.044;2024-01-10T05:02:55;93889.41;;;-6.01;87.15
15568;BME280;7885;42.596;23.044;2024-01-10T05:05:22;93889.16;;;-6.05;86.25
15568;BME280;7885;42.596;23.044;2024-01-10T05:07:50;93891.25;;;-6.02;85.98
15568;BME280;7885;42.596;23.044;2024-01-10T05:10:17;93893.91;;;-6.02;87.57
15568;BME280;7885;42.596;23.044;2024-01-10T05:12:44;93905.06;;;-6.05;86.69
15568;BME280;7885;42.596;23.044;2024-01-10T05:15:10;93904.00;;;-6.09;87.45
15568;BME280;7885;42.596;23.044;2024-01-10T05:17:37;93902.97;;;-6.18;87.13
15568;BME280;7885;42.596;23.044;2024-01-10T05:20:06;93900.28;;;-6.13;88.83
15568;BME280;7885;42.596;23.044;2024-01-10T05:22:34;93905.34;;;-6.11;89.27
15568;BME280;7885;42.596;23.044;2024-01-10T05:25:10;93909.56;;;-6.16;88.43
15568;BME280;7885;42.596;23.044;2024-01-10T05:27:38;93886.53;;;-6.30;87.63
15568;BME280;7885;42.596;23.044;2024-01-10T05:30:05;93901.38;;;-6.24;87.16
15568;BME280;7885;42.596;23.044;2024-01-10T05:32:32;93909.31;;;-6.29;88.20
15568;BME280;7885;42.596;23.044;2024-01-10T05:34:59;93910.91;;;-6.28;88.62
15568;BME280;7885;42.596;23.044;2024-01-10T05:37:27;93888.69;;;-6.42;89.21
15568;BME280;7885;42.596;23.044;2024-01-10T05:39:54;93906.41;;;-6.28;89.71
15568;BME280;7885;42.596;23.044;2024-01-10T05:42:20;93914.06;;;-6.26;89.07
15568;BME280;7885;42.596;23.044;2024-01-10T05:44:47;93915.16;;;-6.22;90.03
15568;BME280;7885;42.596;23.044;2024-01-10T05:47:14;93908.53;;;-6.30;90.82
15568;BME280;7885;42.596;23.044;2024-01-10T05:49:41;93906.13;;;-6.26;91.29
15568;BME280;7885;42.596;23.044;2024-01-10T05:52:08;93884.44;;;-6.38;91.58
15568;BME280;7885;42.596;23.044;2024-01-10T05:54:36;93912.19;;;-6.05;92.06
15568;BME280;7885;42.596;23.044;2024-01-10T05:57:03;93924.66;;;-6.06;90.32
15568;BME280;7885;42.596;23.044;2024-01-10T05:59:30;93913.25;;;-6.06;89.73
15568;BME280;7885;42.596;23.044;2024-01-10T06:01:56;93920.41;;;-5.92;89.84
15568;BME280;7885;42.596;23.044;2024-01-10T06:04:24;93913.50;;;-5.93;90.76
15568;BME280;7885;42.596;23.044;2024-01-10T06:06:50;93924.63;;;-5.86;90.27
15568;BME280;7885;42.596;23.044;2024-01-10T06:09:17;93925.91;;;-5.78;86.88
15568;BME280;7885;42.596;23.044;2024-01-10T06:11:48;93930.94;;;-5.82;87.87
15568;BME280;7885;42.596;23.044;2024-01-10T06:14:15;93922.78;;;-5.90;87.81
15568;BME280;7885;42.596;23.044;2024-01-10T06:16:43;93935.16;;;-5.76;86.90
15568;BME280;7885;42.596;23.044;2024-01-10T06:19:10;93939.38;;;-5.59;86.11
15568;BME280;7885;42.596;23.044;2024-01-10T06:24:59;93936.63;;;-5.34;84.54
15568;BME280;7885;42.596;23.044;2024-01-10T06:27:27;93939.78;;;-5.22;84.61
15568;BME280;7885;42.596;23.044;2024-01-10T06:29:55;93949.25;;;-5.06;83.89
15568;BME280;7885;42.596;23.044;2024-01-10T06:32:22;93948.41;;;-4.96;83.56
15568;BME280;7885;42.596;23.044;2024-01-10T06:34:49;93934.59;;;-4.93;84.61
15568;BME280;7885;42.596;23.044;2024-01-10T06:37:15;93946.78;;;-4.87;84.64
15568;BME280;7885;42.596;23.044;2024-01-10T06:39:42;93950.44;;;-4.78;84.56
15568;BME280;7885;42.596;23.044;2024-01-10T06:52:15;93960.16;;;-4.58;84.67
15568;BME280;7885;42.596;23.044;2024-01-10T06:54:42;93966.50;;;-4.54;84.55
15568;BME280;7885;42.596;23.044;2024-01-10T06:57:08;93980.63;;;-4.59;85.18
15568;BME280;7885;42.596;23.044;2024-01-10T06:59:35;93983.75;;;-4.52;85.38
15568;BME280;7885;42.596;23.044;2024-01-10T07:02:02;93985.06;;;-4.49;85.82
15568;BME280;7885;42.596;23.044;2024-01-10T07:04:30;93966.47;;;-4.49;86.65
15568;BME280;7885;42.596;23.044;2024-01-10T07:06:57;93977.06;;;-4.44;87.20
15568;BME280;7885;42.596;23.044;2024-01-10T07:09:25;93974.31;;;-4.34;87.43
15568;BME280;7885;42.596;23.044;2024-01-10T07:11:52;93971.13;;;-4.31;87.44
15568;BME280;7885;42.596;23.044;2024-01-10T07:14:19;93979.31;;;-4.23;87.38
15568;BME280;7885;42.596;23.044;2024-01-10T07:16:46;93971.25;;;-4.13;87.43
15568;BME280;7885;42.596;23.044;2024-01-10T07:19:13;93975.59;;;-3.93;87.01
15568;BME280;7885;42.596;23.044;2024-01-10T07:21:40;93982.34;;;-4.00;86.29
15568;BME280;7885;42.596;23.044;2024-01-10T07:24:07;93993.13;;;-3.87;86.40
15568;BME280;7885;42.596;23.044;2024-01-10T07:26:36;93985.06;;;-3.77;86.09
15568;BME280;7885;42.596;23.044;2024-01-10T07:29:03;93977.16;;;-3.87;84.60
15568;BME280;7885;42.596;23.044;2024-01-10T07:31:33;93975.22;;;-3.76;85.05
15568;BME280;7885;42.596;23.044;2024-01-10T07:34:00;93990.47;;;-3.58;85.33
15568;BME280;7885;42.596;23.044;2024-01-10T07:36:27;93999.66;;;-3.45;85.24
15568;BME280;7885;42.596;23.044;2024-01-10T07:38:56;94005.22;;;-3.42;84.63
15568;BME280;7885;42.596;23.044;2024-01-10T07:41:23;94003.72;;;-3.24;85.64
15568;BME280;7885;42.596;23.044;2024-01-10T07:43:51;93999.69;;;-3.22;85.39
15568;BME280;7885;42.596;23.044;2024-01-10T07:46:18;93994.72;;;-3.04;85.27
15568;BME280;7885;42.596;23.044;2024-01-10T07:48:45;94009.16;;;-2.87;84.68
15568;BME280;7885;42.596;23.044;2024-01-10T07:51:11;94006.16;;;-2.80;84.31
15568;BME280;7885;42.596;23.044;2024-01-10T07:53:38;94005.44;;;-2.67;84.45
15568;BME280;7885;42.596;23.044;2024-01-10T07:56:05;94002.88;;;-2.53;84.27
15568;BME280;7885;42.596;23.044;2024-01-10T07:58:32;94017.78;;;-2.34;83.70
15568;BME280;7885;42.596;23.044;2024-01-10T08:01:00;94008.38;;;-2.26;83.16
15568;BME280;7885;42.596;23.044;2024-01-10T08:03:28;94017.09;;;-2.02;82.47
15568;BME280;7885;42.596;23.044;2024-01-10T08:05:54;94010.94;;;-2.03;81.61
15568;BME280;7885;42.596;23.044;2024-01-10T08:08:21;94024.28;;;-1.84;80.70
15568;BME280;7885;42.596;23.044;2024-01-10T08:10:48;94020.63;;;-1.56;80.32
15568;BME280;7885;42.596;23.044;2024-01-10T08:13:15;94015.78;;;-1.21;79.64
15568;BME280;7885;42.596;23.044;2024-01-10T08:15:43;93998.50;;;-0.56;78.57
15568;BME280;7885;42.596;23.044;2024-01-10T08:18:11;94002.66;;;1.85;73.47
15568;BME280;7885;42.596;23.044;2024-01-10T08:20:39;94014.28;;;5.09;64.54
15568;BME280;7885;42.596;23.044;2024-01-10T08:23:06;94006.03;;;8.40;52.41
15568;BME280;7885;42.596;23.044;2024-01-10T08:25:33;93994.38;;;11.09;41.14
15568;BME280;7885;42.596;23.044;2024-01-10T08:41:34;93977.56;;;18.88;21.23
15568;BME280;7885;42.596;23.044;2024-01-10T08:44:02;93993.94;;;19.41;20.05
15568;BME280;7885;42.596;23.044;2024-01-10T08:46:29;93996.38;;;19.95;19.78
15568;BME280;7885;42.596;23.044;2024-01-10T08:48:56;93996.59;;;20.56;19.16
15568;BME280;7885;42.596;23.044;2024-01-10T08:51:23;93994.91;;;21.07;17.83
15568;BME280;7885;42.596;23.044;2024-01-10T09:03:57;93986.25;;;21.37;17.65
15568;BME280;7885;42.596;23.044;2024-01-10T09:06:24;93988.72;;;21.03;17.51
15568;BME280;7885;42.596;23.044;2024-01-10T09:08:50;93987.84;;;21.06;17.47
15568;BME280;7885;42.596;23.044;2024-01-10T09:11:17;93989.47;;;21.64;16.93
15568;BME280;7885;42.596;23.044;2024-01-10T09:13:43;93985.00;;;21.54;16.72
15568;BME280;7885;42.596;23.044;2024-01-10T09:16:10;93990.34;;;21.61;16.71
15568;BME280;7885;42.596;23.044;2024-01-10T09:18:37;93986.59;;;21.39;16.46
15568;BME280;7885;42.596;23.044;2024-01-10T09:21:06;93981.09;;;21.23;16.67
15568;BME280;7885;42.596;23.044;2024-01-10T09:27:00;93975.75;;;21.16;16.16
15568;BME280;7885;42.596;23.044;2024-01-10T09:29:27;93977.31;;;20.85;16.51
15568;BME280;7885;42.596;23.044;2024-01-10T09:31:54;93982.97;;;20.65;16.53
15568;BME280;7885;42.596;23.044;2024-01-10T09:34:21;93982.69;;;20.43;17.10
15568;BME280;7885;42.596;23.044;2024-01-10T09:36:49;93983.38;;;20.63;16.92
15568;BME280;7885;42.596;23.044;2024-01-10T09:39:17;93983.19;;;21.19;16.50
15568;BME280;7885;42.596;23.044;2024-01-10T09:41:47;93977.69;;;20.71;16.64
15568;BME280;7885;42.596;23.044;2024-01-10T09:44:17;93974.28;;;20.79;16.98
15568;BME280;7885;42.596;23.044;2024-01-10T09:46:47;93972.38;;;20.92;16.82
15568;BME280;7885;42.596;23.044;2024-01-10T09:49:14;93961.78;;;21.48;16.76
15568;BME280;7885;42.596;23.044;2024-01-10T09:51:41;93960.91;;;21.51;16.66
15568;BME280;7885;42.596;23.044;2024-01-10T09:54:09;93972.38;;;21.66;16.36
15568;BME280;7885;42.596;23.044;2024-01-10T09:56:36;93955.44;;;21.35;16.57
15568;BME280;7885;42.596;23.044;2024-01-10T09:59:04;93942.19;;;21.55;16.86
15568;BME280;7885;42.596;23.044;2024-01-10T10:01:36;93962.50;;;21.94;16.50
15568;BME280;7885;42.596;23.044;2024-01-10T10:04:04;93955.94;;;21.46;17.30
15568;BME280;7885;42.596;23.044;2024-01-10T10:06:33;93922.72;;;21.59;16.87
15568;BME280;7885;42.596;23.044;2024-01-10T10:09:00;93930.00;;;21.94;16.55
15568;BME280;7885;42.596;23.044;2024-01-10T10:11:28;93944.50;;;21.86;17.16
15568;BME280;7885;42.596;23.044;2024-01-10T10:13:55;93948.34;;;21.76;17.48
15568;BME280;7885;42.596;23.044;2024-01-10T10:16:23;93933.53;;;21.82;17.11
15568;BME280;7885;42.596;23.044;2024-01-10T10:18:51;93939.09;;;21.53;17.32
15568;BME280;7885;42.596;23.044;2024-01-10T10:21:24;93933.41;;;21.86;17.15
15568;BME280;7885;42.596;23.044;2024-01-10T10:23:58;93923.53;;;21.85;17.11
15568;BME280;7885;42.596;23.044;2024-01-10T10:26:28;93904.66;;;21.80;17.60
15568;BME280;7885;42.596;23.044;2024-01-10T10:28:55;93913.28;;;22.23;17.06
15568;BME280;7885;42.596;23.044;2024-01-10T10:31:23;93908.34;;;21.35;17.31
15568;BME280;7885;42.596;23.044;2024-01-10T10:33:51;93907.38;;;21.42;17.65
15568;BME280;7885;42.596;23.044;2024-01-10T10:36:18;93900.13;;;21.60;17.37
15568;BME280;7885;42.596;23.044;2024-01-10T10:38:46;93900.34;;;21.25;17.62
15568;BME280;7885;42.596;23.044;2024-01-10T10:41:14;93887.94;;;20.72;18.10
15568;BME280;7885;42.596;23.044;2024-01-10T10:43:42;93887.41;;;21.05;17.96
15568;BME280;7885;42.596;23.044;2024-01-10T10:46:10;93891.75;;;20.61;18.31
15568;BME280;7885;42.596;23.044;2024-01-10T10:48:38;93875.00;;;20.36;18.94
15568;BME280;7885;42.596;23.044;2024-01-10T10:51:06;93879.91;;;20.61;18.49
15568;BME280;7885;42.596;23.044;2024-01-10T10:53:34;93860.94;;;20.76;18.27
15568;BME280;7885;42.596;23.044;2024-01-10T10:56:03;93871.50;;;20.00;19.44
15568;BME280;7885;42.596;23.044;2024-01-10T10:58:33;93854.00;;;19.90;18.65
15568;BME280;7885;42.596;23.044;2024-01-10T11:01:04;93871.88;;;20.34;18.84
15568;BME280;7885;42.596;23.044;2024-01-10T11:03:34;93857.03;;;19.96;18.52
15568;BME280;7885;42.596;23.044;2024-01-10T11:06:01;93851.19;;;19.38;19.71
15568;BME280;7885;42.596;23.044;2024-01-10T11:08:31;93869.63;;;19.97;18.94
15568;BME280;7885;42.596;23.044;2024-01-10T11:11:02;93853.66;;;20.04;18.98
15568;BME280;7885;42.596;23.044;2024-01-10T11:13:41;93859.63;;;20.19;19.15
15568;BME280;7885;42.596;23.044;2024-01-10T11:16:48;93860.38;;;19.87;20.06
15568;BME280;7885;42.596;23.044;2024-01-10T11:19:37;93858.84;;;20.18;20.13
15568;BME280;7885;42.596;23.044;2024-01-10T11:22:17;93850.88;;;20.21;20.21
15568;BME280;7885;42.596;23.044;2024-01-10T11:24:46;93845.47;;;20.33;19.95
15568;BME280;7885;42.596;23.044;2024-01-10T11:27:14;93852.19;;;20.16;20.62
15568;BME280;7885;42.596;23.044;2024-01-10T11:29:42;93846.94;;;19.53;19.95
15568;BME280;7885;42.596;23.044;2024-01-10T11:32:14;93853.16;;;18.82;20.52
15568;BME280;7885;42.596;23.044;2024-01-10T11:34:50;93845.44;;;18.74;20.98
15568;BME280;7885;42.596;23.044;2024-01-10T11:37:16;93845.81;;;18.52;20.41
15568;BME280;7885;42.596;23.044;2024-01-10T11:39:44;93832.53;;;18.24;21.82
15568;BME280;7885;42.596;23.044;2024-01-10T11:42:11;93838.97;;;17.67;22.54
15568;BME280;7885;42.596;23.044;2024-01-10T11:44:49;93830.09;;;16.99;22.86
15568;BME280;7885;42.596;23.044;2024-01-10T11:47:19;93847.03;;;16.23;23.53
15568;BME280;7885;42.596;23.044;2024-01-10T11:49:55;93842.53;;;15.51;25.32
15568;BME280;7885;42.596;23.044;2024-01-10T11:52:22;93835.78;;;14.93;24.88
15568;BME280;7885;42.596;23.044;2024-01-10T11:54:49;93833.63;;;14.32;25.29
15568;BME280;7885;42.596;23.044;2024-01-10T11:57:20;93818.88;;;13.83;27.06
15568;BME280;7885;42.596;23.044;2024-01-10T11:59:50;93824.34;;;13.65;26.69
15568;BME280;7885;42.596;23.044;2024-01-10T12:02:20;93810.28;;;13.28;27.87
15568;BME280;7885;42.596;23.044;2024-01-10T12:04:49;93810.19;;;13.00;28.84
15568;BME280;7885;42.596;23.044;2024-01-10T12:07:17;93827.34;;;12.83;28.76
15568;BME280;7885;42.596;23.044;2024-01-10T12:09:44;93807.78;;;12.66;28.64
15568;BME280;7885;42.596;23.044;2024-01-10T12:12:12;93806.19;;;12.58;29.65
15568;BME280;7885;42.596;23.044;2024-01-10T12:14:39;93814.41;;;12.65;28.71
15568;BME280;7885;42.596;23.044;2024-01-10T12:17:06;93811.72;;;12.83;28.03
15568;BME280;7885;42.596;23.044;2024-01-10T12:19:35;93809.38;;;12.71;28.56
15568;BME280;7885;42.596;23.044;2024-01-10T12:22:03;93793.75;;;12.72;28.53
15568;BME280;7885;42.596;23.044;2024-01-10T12:24:31;93808.22;;;12.86;28.46
15568;BME280;7885;42.596;23.044;2024-01-10T12:26:57;93805.50;;;12.90;28.37
15568;BME280;7885;42.596;23.044;2024-01-10T12:29:25;93793.81;;;12.93;29.67
15568;BME280;7885;42.596;23.044;2024-01-10T12:31:52;93803.25;;;13.09;28.69
15568;BME280;7885;42.596;23.044;2024-01-10T12:34:19;93800.06;;;13.04;29.41
15568;BME280;7885;42.596;23.044;2024-01-10T12:36:48;93797.75;;;13.06;29.56
15568;BME280;7885;42.596;23.044;2024-01-10T12:39:15;93800.13;;;13.18;28.76
15568;BME280;7885;42.596;23.044;2024-01-10T12:41:43;93798.97;;;13.23;29.47
15568;BME280;7885;42.596;23.044;2024-01-10T12:44:11;93794.59;;;13.07;29.34
15568;BME280;7885;42.596;23.044;2024-01-10T12:46:50;93789.19;;;13.18;28.25
15568;BME280;7885;42.596;23.044;2024-01-10T12:49:17;93799.31;;;13.14;28.20
15568;BME280;7885;42.596;23.044;2024-01-10T12:51:45;93797.69;;;12.88;28.13
15568;BME280;7885;42.596;23.044;2024-01-10T12:54:15;93789.06;;;12.76;28.49
15568;BME280;7885;42.596;23.044;2024-01-10T12:56:42;93785.94;;;12.66;28.99
15568;BME280;7885;42.596;23.044;2024-01-10T12:59:09;93789.06;;;12.69;30.51
15568;BME280;7885;42.596;23.044;2024-01-10T13:01:36;93780.13;;;12.79;30.31
15568;BME280;7885;42.596;23.044;2024-01-10T13:04:03;93790.69;;;12.98;30.22
15568;BME280;7885;42.596;23.044;2024-01-10T13:06:30;93789.91;;;13.04;28.90
15568;BME280;7885;42.596;23.044;2024-01-10T13:08:57;93797.31;;;12.97;28.83
15568;BME280;7885;42.596;23.044;2024-01-10T13:11:25;93789.13;;;12.97;28.78
15568;BME280;7885;42.596;23.044;2024-01-10T13:13:51;93798.13;;;13.04;28.74
15568;BME280;7885;42.596;23.044;2024-01-10T13:16:18;93787.56;;;12.89;28.67
15568;BME280;7885;42.596;23.044;2024-01-10T13:18:45;93790.66;;;12.84;27.83
15568;BME280;7885;42.596;23.044;2024-01-10T13:21:12;93789.84;;;12.69;29.29
15568;BME280;7885;42.596;23.044;2024-01-10T13:23:38;93784.34;;;12.58;29.49
15568;BME280;7885;42.596;23.044;2024-01-10T13:32:50;93783.00;;;12.17;30.09
15568;BME280;7885;42.596;23.044;2024-01-10T13:35:17;93772.78;;;11.93;30.59
15568;BME280;7885;42.596;23.044;2024-01-10T13:37:44;93786.13;;;11.54;30.35
15568;BME280;7885;42.596;23.044;2024-01-10T13:40:11;93778.97;;;11.35;30.86
15568;BME280;7885;42.596;23.044;2024-01-10T13:42:39;93779.66;;;11.22;31.03
15568;BME280;7885;42.596;23.044;2024-01-10T13:45:05;93764.75;;;11.08;30.73
15568;BME280;7885;42.596;23.044;2024-01-10T13:47:33;93784.91;;;11.00;32.16
15568;BME280;7885;42.596;23.044;2024-01-10T13:50:01;93781.06;;;10.64;30.52
15568;BME280;7885;42.596;23.044;2024-01-10T13:52:29;93782.81;;;10.46;32.54
15568;BME280;7885;42.596;23.044;2024-01-10T13:54:56;93782.81;;;10.46;32.87
15568;BME280;7885;42.596;23.044;2024-01-10T13:57:23;93785.72;;;10.27;32.95
15568;BME280;7885;42.596;23.044;2024-01-10T13:59:50;93792.97;;;10.16;34.27
15568;BME280;7885;42.596;23.044;2024-01-10T14:02:17;93795.97;;;9.81;35.20
15568;BME280;7885;42.596;23.044;2024-01-10T14:11:29;93790.78;;;7.94;40.59
15568;BME280;7885;42.596;23.044;2024-01-10T14:13:56;93788.56;;;7.61;41.93